createdAt,value
2022-12-23T00:00:43.984Z,11.33
2022-12-23T00:03:11.086Z,11.90
2022-12-23T00:05:39.337Z,10.47
2022-12-23T00:08:07.726Z,11.20
2022-12-23T00:10:37.999Z,12.17
2022-12-23T00:13:23.563Z,13.20
2022-12-23T00:15:50.482Z,13.10
2022-12-23T00:18:17.269Z,14.43
2022-12-23T00:20:44.085Z,14.53
2022-12-23T00:23:10.893Z,14.47
2022-12-23T00:25:44.641Z,13.93
2022-12-23T00:28:18.251Z,14.07
2022-12-23T00:30:49.256Z,14.80
2022-12-23T00:33:18.133Z,13.67
2022-12-23T00:35:45.909Z,15.23
2022-12-23T00:38:12.951Z,15.40
2022-12-23T00:40:58.339Z,14.57
2022-12-23T00:43:25.200Z,14.67
2022-12-23T00:45:52.008Z,14.30
2022-12-23T00:48:37.255Z,15.37
2022-12-23T00:51:04.148Z,15.23
2022-12-23T00:53:30.920Z,14.73
2022-12-23T00:55:57.745Z,15.73
2022-12-23T00:58:24.570Z,15.17
2022-12-23T01:01:12.192Z,15.00
2022-12-23T01:03:57.703Z,15.37
2022-12-23T01:06:24.481Z,15.13
2022-12-23T01:08:51.289Z,14.30
2022-12-23T01:11:18.070Z,16.30
2022-12-23T01:13:44.850Z,15.37
2022-12-23T01:16:17.082Z,15.23
2022-12-23T01:18:44.387Z,14.67
2022-12-23T01:21:11.703Z,15.10
2022-12-23T01:23:38.529Z,15.27
2022-12-23T01:26:07.451Z,14.53
2022-12-23T01:28:35.425Z,16.40
2022-12-23T01:31:04.514Z,14.20
2022-12-23T01:33:33.077Z,14.53
2022-12-23T01:36:05.110Z,14.30
2022-12-23T01:38:32.250Z,14.77
2022-12-23T01:40:59.283Z,15.00
2022-12-23T01:43:46.128Z,15.93
2022-12-23T01:46:13.045Z,13.77
2022-12-23T01:48:41.694Z,15.37
2022-12-23T01:51:13.703Z,14.83
2022-12-23T01:53:48.060Z,13.97
2022-12-23T01:56:24.637Z,12.80
2022-12-23T01:59:00.514Z,14.23
2022-12-23T02:01:47.209Z,14.43
2022-12-23T02:04:18.381Z,14.23
2022-12-23T02:07:06.752Z,14.33
2022-12-23T02:09:35.692Z,14.70
2022-12-23T02:12:21.573Z,14.33
2022-12-23T02:15:48.563Z,14.33
2022-12-23T02:18:30.365Z,13.60
2022-12-23T02:21:21.609Z,14.43
2022-12-23T02:24:12.411Z,15.50
2022-12-23T02:27:12.396Z,14.23
2022-12-23T02:30:00.954Z,14.53
2022-12-23T02:33:18.129Z,14.73
2022-12-23T02:36:06.997Z,14.23
2022-12-23T02:38:52.563Z,14.63
2022-12-23T02:41:53.590Z,14.77
2022-12-23T02:44:38.406Z,14.37
2022-12-23T02:47:16.104Z,14.97
2022-12-23T02:49:47.690Z,15.23
2022-12-23T02:52:17.144Z,15.37
2022-12-23T02:55:02.030Z,14.27
2022-12-23T02:57:42.232Z,15.77
2022-12-23T03:00:09.903Z,14.80
2022-12-23T03:02:39.629Z,15.30
2022-12-23T03:05:23.018Z,14.97
2022-12-23T03:07:51.508Z,14.57
2022-12-23T03:10:29.773Z,14.90
2022-12-23T03:13:24.043Z,16.67
2022-12-23T03:16:09.181Z,15.57
2022-12-23T03:18:50.237Z,15.73
2022-12-23T03:21:35.491Z,14.90
2022-12-23T03:24:37.555Z,15.97
2022-12-23T03:27:10.832Z,16.07
2022-12-23T03:29:55.933Z,15.77
2022-12-23T03:32:25.746Z,17.17
2022-12-23T03:34:56.995Z,15.10
2022-12-23T03:37:25.928Z,15.30
2022-12-23T03:40:10.378Z,15.63
2022-12-23T03:42:40.640Z,15.90
2022-12-23T03:48:19.722Z,16.07
2022-12-23T03:50:51.993Z,15.80
2022-12-23T03:53:30.387Z,15.80
2022-12-23T03:56:02.712Z,16.83
2022-12-23T03:58:41.797Z,16.70
2022-12-23T04:01:23.471Z,15.50
2022-12-23T04:04:15.741Z,16.60
2022-12-23T04:06:54.913Z,16.03
2022-12-23T04:09:24.802Z,15.60
2022-12-23T04:11:52.262Z,15.47
2022-12-23T04:14:20.198Z,17.40
2022-12-23T04:16:49.595Z,17.10
2022-12-23T04:19:16.511Z,15.17
2022-12-23T04:21:43.274Z,16.23
2022-12-23T04:24:10.013Z,15.87
2022-12-23T04:26:36.773Z,16.63
2022-12-23T04:29:03.597Z,15.03
2022-12-23T04:31:30.390Z,16.17
2022-12-23T04:33:57.723Z,15.90
2022-12-23T04:36:24.497Z,15.67
2022-12-23T04:38:51.283Z,15.67
2022-12-23T04:41:18.039Z,16.30
2022-12-23T04:43:49.307Z,15.77
2022-12-23T04:46:19.495Z,16.03
2022-12-23T04:48:46.524Z,14.83
2022-12-23T04:51:13.256Z,16.47
2022-12-23T04:53:40.002Z,15.40
2022-12-23T04:56:06.793Z,15.40
2022-12-23T04:58:33.678Z,16.20
2022-12-23T05:01:02.906Z,15.33
2022-12-23T05:03:30.370Z,16.40
2022-12-23T05:05:57.365Z,14.90
2022-12-23T05:08:24.145Z,15.83
2022-12-23T05:10:50.952Z,20.50
2022-12-23T05:13:17.783Z,22.23
2022-12-23T05:15:46.163Z,15.87
2022-12-23T05:18:12.978Z,15.27
2022-12-23T05:20:40.455Z,16.93
2022-12-23T05:23:07.287Z,14.90
2022-12-23T05:25:38.655Z,15.67
2022-12-23T05:28:06.690Z,15.33
2022-12-23T05:30:33.931Z,16.23
2022-12-23T05:33:01.002Z,16.53
2022-12-23T05:35:28.494Z,14.83
2022-12-23T05:37:55.261Z,14.07
2022-12-23T05:40:23.916Z,14.47
2022-12-23T05:42:52.418Z,14.83
2022-12-23T05:45:19.261Z,14.73
2022-12-23T05:47:46.128Z,14.07
2022-12-23T05:50:13.082Z,14.33
2022-12-23T05:52:39.833Z,14.90
2022-12-23T05:55:07.255Z,14.10
2022-12-23T05:57:34.023Z,15.47
2022-12-23T06:00:00.870Z,13.90
2022-12-23T06:02:27.798Z,14.30
2022-12-23T06:04:54.728Z,13.87
2022-12-23T06:07:21.507Z,14.13
2022-12-23T06:09:48.298Z,13.17
2022-12-23T06:12:15.096Z,12.97
2022-12-23T06:14:42.083Z,13.07
2022-12-23T06:17:08.948Z,13.30
2022-12-23T06:19:35.801Z,13.00
2022-12-23T06:22:02.578Z,13.30
2022-12-23T06:24:29.362Z,12.23
2022-12-23T06:26:57.407Z,12.70
2022-12-23T06:29:24.916Z,13.13
2022-12-23T06:31:51.853Z,12.47
2022-12-23T06:34:18.771Z,12.50
2022-12-23T06:36:45.689Z,12.47
2022-12-23T06:39:12.612Z,12.97
2022-12-23T06:41:39.521Z,11.97
2022-12-23T06:44:06.607Z,11.87
2022-12-23T06:46:33.474Z,11.87
2022-12-23T06:49:00.235Z,11.93
2022-12-23T06:51:27.349Z,12.90
2022-12-23T06:53:54.153Z,12.07
2022-12-23T06:56:21.004Z,12.47
2022-12-23T06:58:47.961Z,12.63
2022-12-23T07:01:14.821Z,11.57
2022-12-23T07:03:41.737Z,12.00
2022-12-23T07:06:08.552Z,11.53
2022-12-23T07:08:35.357Z,11.10
2022-12-23T07:11:03.500Z,11.17
2022-12-23T07:13:31.567Z,12.20
2022-12-23T07:15:59.074Z,11.70
2022-12-23T07:18:26.280Z,12.20
2022-12-23T07:20:53.088Z,12.37
2022-12-23T07:23:19.959Z,12.67
2022-12-23T07:25:46.782Z,12.53
2022-12-23T07:28:13.528Z,12.63
2022-12-23T07:30:40.260Z,12.00
2022-12-23T07:33:07.062Z,12.07
2022-12-23T07:35:33.944Z,13.07
2022-12-23T07:38:00.824Z,13.30
2022-12-23T07:40:28.074Z,13.00
2022-12-23T07:42:57.521Z,13.00
2022-12-23T07:45:25.404Z,13.80
2022-12-23T07:47:56.361Z,14.17
2022-12-23T07:50:23.509Z,14.50
2022-12-23T07:52:50.439Z,15.63
2022-12-23T07:55:17.256Z,14.77
2022-12-23T07:57:47.457Z,14.70
2022-12-23T08:00:14.538Z,16.07
2022-12-23T08:02:42.053Z,14.73
2022-12-23T08:05:10.438Z,14.50
2022-12-23T08:07:37.338Z,15.40
2022-12-23T08:10:04.973Z,14.07
2022-12-23T08:12:32.148Z,14.60
2022-12-23T08:14:59.237Z,14.93
2022-12-23T08:17:27.593Z,14.10
2022-12-23T08:19:54.528Z,15.03
2022-12-23T08:22:21.559Z,14.40
2022-12-23T08:24:48.401Z,14.20
2022-12-23T08:27:16.312Z,14.93
2022-12-23T08:29:43.199Z,13.73
2022-12-23T08:32:10.179Z,15.17
2022-12-23T08:34:37.041Z,14.00
2022-12-23T08:37:03.918Z,14.87
2022-12-23T08:39:30.893Z,15.00
2022-12-23T08:41:57.708Z,15.47
2022-12-23T08:44:27.828Z,13.70
2022-12-23T08:46:55.324Z,13.40
2022-12-23T08:49:22.372Z,14.60
2022-12-23T08:51:49.367Z,13.40
2022-12-23T08:54:17.307Z,13.73
2022-12-23T08:56:44.144Z,13.37
2022-12-23T08:59:19.089Z,13.00
2022-12-23T09:01:47.722Z,12.60
2022-12-23T09:04:15.170Z,13.57
2022-12-23T09:06:43.748Z,12.87
2022-12-23T09:09:13.631Z,12.10
2022-12-23T09:11:40.870Z,12.43
2022-12-23T09:14:11.485Z,12.60
2022-12-23T09:16:38.563Z,12.90
2022-12-23T09:19:05.701Z,11.83
2022-12-23T09:21:32.489Z,12.40
2022-12-23T09:23:59.298Z,11.33
2022-12-23T09:26:29.215Z,11.30
2022-12-23T09:28:56.843Z,12.30
2022-12-23T09:31:25.305Z,11.20
2022-12-23T09:33:54.739Z,12.33
2022-12-23T09:36:22.401Z,11.97
2022-12-23T09:38:57.614Z,11.47
2022-12-23T09:41:48.855Z,11.73
2022-12-23T09:44:34.756Z,11.90
2022-12-23T09:47:05.533Z,11.73
2022-12-23T09:49:33.776Z,12.27
2022-12-23T09:52:05.114Z,12.47
2022-12-23T09:54:47.487Z,11.80
2022-12-23T09:57:26.508Z,11.67
2022-12-23T09:59:59.326Z,12.23
2022-12-23T10:02:44.399Z,11.53
2022-12-23T10:05:26.527Z,11.03
2022-12-23T10:08:03.092Z,10.27
2022-12-23T10:10:54.450Z,10.20
2022-12-23T10:13:32.088Z,10.10
2022-12-23T10:16:05.312Z,9.47
2022-12-23T10:18:46.916Z,9.20
2022-12-23T10:21:42.248Z,9.20
2022-12-23T10:24:42.684Z,9.93
2022-12-23T10:27:22.113Z,8.90
2022-12-23T10:29:49.382Z,8.77
2022-12-23T10:32:46.941Z,8.77
2022-12-23T10:35:39.916Z,9.57
2022-12-23T10:38:20.680Z,8.57
2022-12-23T10:40:54.919Z,8.90
2022-12-23T10:43:39.922Z,10.57
2022-12-23T10:46:28.920Z,9.60
2022-12-23T10:49:24.150Z,9.87
2022-12-23T10:51:58.826Z,9.27
2022-12-23T10:54:34.078Z,9.63
2022-12-23T10:57:01.783Z,9.13
2022-12-23T10:59:34.859Z,9.80
2022-12-23T11:02:11.839Z,9.53
2022-12-23T11:04:42.031Z,9.47
2022-12-23T11:07:43.343Z,10.23
2022-12-23T11:10:06.224Z,9.83
2022-12-23T11:12:45.037Z,10.17
2022-12-23T11:15:32.518Z,8.87
2022-12-23T11:18:11.681Z,9.43
2022-12-23T11:20:43.449Z,9.13
2022-12-23T11:23:28.754Z,8.57
2022-12-23T11:26:12.053Z,9.37
2022-12-23T11:28:48.164Z,8.50
2022-12-23T11:31:16.991Z,9.03
2022-12-23T11:34:02.344Z,9.93
2022-12-23T11:36:31.154Z,9.30
2022-12-23T11:39:10.068Z,9.90
2022-12-23T11:41:49.488Z,9.50
2022-12-23T11:44:35.986Z,10.00
2022-12-23T11:47:21.820Z,11.07
2022-12-23T11:50:06.407Z,10.83
2022-12-23T11:52:33.739Z,10.73
2022-12-23T11:55:05.786Z,10.33
2022-12-23T11:57:46.415Z,9.97
2022-12-23T12:00:40.389Z,10.83
2022-12-23T12:03:17.547Z,10.40
2022-12-23T12:05:59.055Z,10.47
2022-12-23T12:08:33.081Z,9.97
2022-12-23T12:11:13.490Z,10.50
2022-12-23T12:13:42.374Z,10.23
2022-12-23T12:16:12.124Z,10.40
2022-12-23T12:18:41.552Z,10.50
2022-12-23T12:21:14.957Z,11.40
2022-12-23T12:23:46.864Z,10.43
2022-12-23T12:26:22.943Z,10.87
2022-12-23T12:28:56.661Z,11.20
2022-12-23T12:31:26.303Z,12.57
2022-12-23T12:34:02.208Z,16.30
2022-12-23T12:36:37.979Z,13.33
2022-12-23T12:39:05.292Z,13.23
2022-12-23T12:41:39.516Z,14.10
2022-12-23T12:44:34.535Z,12.80
2022-12-23T12:47:28.455Z,12.23
2022-12-23T12:50:04.770Z,12.47
2022-12-23T12:52:38.992Z,12.20
2022-12-23T12:55:18.018Z,12.67
2022-12-23T12:57:44.957Z,11.90
2022-12-23T13:00:41.446Z,11.47
2022-12-23T13:03:17.177Z,12.20
2022-12-23T13:05:56.609Z,11.97
2022-12-23T13:08:35.374Z,13.93
2022-12-23T13:11:28.026Z,14.37
2022-12-23T13:14:05.557Z,14.43
2022-12-23T13:17:02.072Z,12.80
2022-12-23T13:19:46.774Z,11.40
2022-12-23T13:22:17.741Z,14.87
2022-12-23T13:25:02.902Z,12.63
2022-12-23T13:28:18.176Z,12.17
2022-12-23T13:30:53.114Z,9.57
2022-12-23T13:33:28.273Z,8.63
2022-12-23T13:36:07.954Z,8.93
2022-12-23T13:38:59.151Z,8.97
2022-12-23T13:41:41.123Z,7.97
2022-12-23T13:44:13.578Z,24.17
2022-12-23T13:47:08.192Z,10.40
2022-12-23T13:49:49.794Z,93.03
2022-12-23T13:52:35.492Z,81.87
2022-12-23T13:55:02.259Z,68.10
2022-12-23T13:57:47.991Z,58.93
2022-12-23T14:00:18.107Z,12.20
2022-12-23T14:02:58.345Z,10.67
2022-12-23T14:05:31.182Z,8.43
2022-12-23T14:08:04.798Z,7.90
2022-12-23T14:10:32.390Z,7.40
2022-12-23T14:13:06.327Z,8.20
2022-12-23T14:16:13.062Z,7.90
2022-12-23T14:18:57.425Z,7.63
2022-12-23T14:21:42.060Z,7.70
2022-12-23T14:24:33.108Z,7.77
2022-12-23T14:27:38.660Z,8.73
2022-12-23T14:30:16.473Z,8.30
2022-12-23T14:32:50.104Z,8.30
2022-12-23T14:35:25.146Z,8.90
2022-12-23T14:38:13.697Z,8.33
2022-12-23T14:40:43.733Z,8.10
2022-12-23T14:43:22.840Z,9.00
2022-12-23T14:45:58.271Z,8.40
2022-12-23T14:48:34.456Z,9.07
2022-12-23T14:51:29.124Z,8.17
2022-12-23T14:53:59.028Z,9.10
2022-12-23T14:56:41.514Z,8.80
2022-12-23T14:59:38.329Z,11.30
2022-12-23T15:02:25.951Z,10.90
2022-12-23T15:04:57.896Z,10.17
2022-12-23T15:07:36.925Z,9.37
2022-12-23T15:10:06.150Z,8.87
2022-12-23T15:12:34.377Z,18.93
2022-12-23T15:15:25.052Z,11.10
2022-12-23T15:18:03.501Z,9.63
2022-12-23T15:20:30.886Z,8.37
2022-12-23T15:23:01.801Z,8.60
2022-12-23T15:25:34.925Z,9.20
2022-12-23T15:28:03.450Z,9.17
2022-12-23T15:30:37.066Z,8.60
2022-12-23T15:33:27.918Z,7.60
2022-12-23T15:35:54.016Z,7.73
2022-12-23T15:38:22.271Z,7.73
2022-12-23T15:41:02.550Z,8.90
2022-12-23T15:43:29.907Z,8.10
2022-12-23T15:46:07.580Z,7.87
2022-12-23T15:48:34.792Z,7.70
2022-12-23T15:51:49.675Z,8.33
2022-12-23T15:54:22.343Z,8.00
2022-12-23T15:56:52.204Z,8.13
2022-12-23T15:59:29.050Z,9.80
2022-12-23T16:01:56.247Z,9.20
2022-12-23T16:04:28.436Z,10.00
2022-12-23T16:06:56.014Z,10.63
2022-12-23T16:09:31.043Z,12.27
2022-12-23T16:12:25.642Z,11.33
2022-12-23T16:15:02.160Z,14.23
2022-12-23T16:17:34.856Z,12.77
2022-12-23T16:20:39.663Z,9.63
2022-12-23T16:23:10.561Z,10.10
2022-12-23T16:25:37.607Z,10.40
2022-12-23T16:28:27.855Z,9.80
2022-12-23T16:30:57.302Z,15.80
2022-12-23T16:33:38.601Z,15.03
2022-12-23T16:36:25.821Z,23.50
2022-12-23T16:39:21.541Z,14.43
2022-12-23T16:41:49.607Z,12.83
2022-12-23T16:44:17.537Z,13.47
2022-12-23T16:46:48.279Z,14.07
2022-12-23T16:49:21.223Z,14.40
2022-12-23T16:51:48.789Z,13.20
2022-12-23T16:54:18.229Z,12.40
2022-12-23T16:56:46.832Z,12.77
2022-12-23T16:59:14.321Z,12.80
2022-12-23T17:01:45.429Z,12.33
2022-12-23T17:04:12.660Z,12.73
2022-12-23T17:06:40.707Z,12.00
2022-12-23T17:09:10.109Z,12.10
2022-12-23T17:11:43.550Z,12.77
2022-12-23T17:14:25.385Z,12.13
2022-12-23T17:16:52.944Z,12.57
2022-12-23T17:19:27.212Z,12.87
2022-12-23T17:21:59.361Z,12.30
2022-12-23T17:24:27.254Z,11.50
2022-12-23T17:26:56.736Z,11.70
2022-12-23T17:29:23.866Z,12.93
2022-12-23T17:31:51.240Z,12.77
2022-12-23T17:34:20.958Z,13.60
2022-12-23T17:36:50.754Z,13.77
2022-12-23T17:39:19.242Z,14.27
2022-12-23T17:41:46.355Z,14.30
2022-12-23T17:44:17.721Z,15.17
2022-12-23T17:46:46.031Z,15.13
2022-12-23T17:49:13.243Z,15.27
2022-12-23T17:51:41.315Z,14.63
2022-12-23T17:54:20.291Z,13.90
2022-12-23T17:56:47.200Z,13.30
2022-12-23T17:59:13.975Z,13.43
2022-12-23T18:01:40.881Z,12.13
2022-12-23T18:04:08.446Z,13.03
2022-12-23T18:06:35.495Z,12.10
2022-12-23T18:09:02.700Z,12.10
2022-12-23T18:11:39.397Z,13.20
2022-12-23T18:14:27.516Z,12.37
2022-12-23T18:16:54.652Z,12.80
2022-12-23T18:19:21.602Z,11.60
2022-12-23T18:21:49.091Z,12.60
2022-12-23T18:24:15.943Z,13.63
2022-12-23T18:26:43.250Z,13.33
2022-12-23T18:29:10.040Z,13.80
2022-12-23T18:31:42.778Z,13.47
2022-12-23T18:34:17.956Z,14.23
2022-12-23T18:36:45.556Z,13.70
2022-12-23T18:39:12.419Z,13.47
2022-12-23T18:41:39.203Z,14.43
2022-12-23T18:44:06.149Z,13.90
2022-12-23T18:46:33.121Z,14.73
2022-12-23T18:48:59.936Z,14.47
2022-12-23T18:51:26.701Z,13.53
2022-12-23T18:53:53.467Z,14.40
2022-12-23T18:56:24.111Z,14.20
2022-12-23T18:58:50.889Z,13.23
2022-12-23T19:01:18.785Z,17.13
2022-12-23T19:03:46.689Z,15.93
2022-12-23T19:06:15.235Z,13.50
2022-12-23T19:08:42.818Z,13.30
2022-12-23T19:11:18.247Z,14.10
2022-12-23T19:13:45.892Z,13.10
2022-12-23T19:16:15.370Z,13.77
2022-12-23T19:18:42.754Z,13.20
2022-12-23T19:21:09.549Z,13.40
2022-12-23T19:23:37.188Z,13.37
2022-12-23T19:26:06.150Z,13.53
2022-12-23T19:28:33.949Z,14.63
2022-12-23T19:31:00.804Z,13.10
2022-12-23T19:33:27.665Z,13.20
2022-12-23T19:35:54.490Z,13.20
2022-12-23T19:38:21.361Z,13.50
2022-12-23T19:40:57.532Z,12.93
2022-12-23T19:43:24.754Z,14.23
2022-12-23T19:45:59.427Z,13.40
2022-12-23T19:48:26.677Z,13.50
2022-12-23T19:50:57.439Z,14.93
2022-12-23T19:53:24.475Z,13.80
2022-12-23T19:56:06.811Z,15.33
2022-12-23T19:58:36.301Z,16.27
2022-12-23T20:01:07.907Z,17.27
2022-12-23T20:03:35.683Z,15.50
2022-12-23T20:06:02.996Z,15.13
2022-12-23T20:08:29.822Z,16.27
2022-12-23T20:11:08.427Z,16.00
2022-12-23T20:13:35.822Z,15.50
2022-12-23T20:16:04.094Z,19.23
2022-12-23T20:18:31.319Z,19.37
2022-12-23T20:20:59.461Z,24.07
2022-12-23T20:23:26.439Z,16.80
2022-12-23T20:25:53.261Z,16.07
2022-12-23T20:28:20.201Z,16.50
2022-12-23T20:30:48.232Z,26.27
2022-12-23T20:33:15.583Z,31.03
2022-12-23T20:35:42.456Z,26.97
2022-12-23T20:38:09.367Z,21.47
2022-12-23T20:40:36.175Z,20.03
2022-12-23T20:43:04.013Z,18.90
2022-12-23T20:45:31.038Z,17.97
2022-12-23T20:47:57.844Z,17.77
2022-12-23T20:50:24.645Z,18.67
2022-12-23T20:52:51.428Z,18.00
2022-12-23T20:55:18.202Z,18.60
2022-12-23T20:57:45.721Z,18.23
2022-12-23T21:00:13.166Z,17.93
2022-12-23T21:02:40.715Z,21.47
2022-12-23T21:05:07.896Z,19.67
2022-12-23T21:07:34.713Z,19.97
2022-12-23T21:10:01.578Z,18.80
2022-12-23T21:12:28.329Z,18.57
2022-12-23T21:14:55.072Z,21.97
2022-12-23T21:17:23.698Z,20.90
2022-12-23T21:19:50.522Z,19.20
2022-12-23T21:22:17.264Z,18.37
2022-12-23T21:24:44.045Z,17.60
2022-12-23T21:27:10.874Z,19.47
2022-12-23T21:29:37.687Z,16.97
2022-12-23T21:32:04.614Z,15.47
2022-12-23T21:34:31.419Z,17.17
2022-12-23T21:36:58.252Z,16.07
2022-12-23T21:39:25.210Z,16.20
2022-12-23T21:41:52.715Z,16.23
2022-12-23T21:44:19.519Z,16.00
2022-12-23T21:46:46.432Z,15.37
2022-12-23T21:49:13.372Z,15.27
2022-12-23T21:51:41.662Z,15.20
2022-12-23T21:54:12.744Z,15.20
2022-12-23T21:56:40.568Z,16.47
2022-12-23T21:59:11.801Z,14.57
2022-12-23T22:01:38.972Z,14.27
2022-12-23T22:04:06.066Z,13.57
2022-12-23T22:06:43.531Z,13.97
2022-12-23T22:09:13.231Z,14.07
2022-12-23T22:11:40.042Z,14.20
2022-12-23T22:14:08.740Z,13.17
2022-12-23T22:16:36.371Z,12.27
2022-12-23T22:19:05.770Z,13.03
2022-12-23T22:21:34.504Z,12.17
2022-12-23T22:24:02.601Z,13.30
2022-12-23T22:26:32.059Z,12.47
2022-12-23T22:29:01.526Z,11.47
2022-12-23T22:31:42.925Z,12.23
2022-12-23T22:34:14.107Z,11.87
2022-12-23T22:36:41.082Z,11.17
2022-12-23T22:39:08.296Z,10.80
2022-12-23T22:41:35.558Z,10.43
2022-12-23T22:44:02.407Z,10.63
2022-12-23T22:46:29.789Z,10.00
2022-12-23T22:48:58.708Z,10.20
2022-12-23T22:51:29.079Z,10.57
2022-12-23T22:53:56.086Z,10.63
2022-12-23T22:56:24.446Z,10.20
2022-12-23T22:58:52.890Z,9.47
2022-12-23T23:01:26.362Z,10.40
2022-12-23T23:03:58.461Z,8.30
2022-12-23T23:06:27.975Z,9.97
2022-12-23T23:08:55.656Z,9.07
2022-12-23T23:11:23.373Z,9.87
2022-12-23T23:13:50.323Z,10.77
2022-12-23T23:16:17.427Z,9.47
2022-12-23T23:18:44.397Z,10.80
2022-12-23T23:21:12.970Z,10.07
2022-12-23T23:23:39.988Z,12.07
2022-12-23T23:26:10.157Z,9.47
2022-12-23T23:28:38.449Z,9.47
2022-12-23T23:31:40.000Z,10.07
2022-12-23T23:33:52.806Z,10.00
2022-12-23T23:36:19.639Z,9.43
2022-12-23T23:38:46.523Z,9.60
2022-12-23T23:41:16.151Z,9.77
2022-12-23T23:43:47.606Z,9.47
2022-12-23T23:46:14.543Z,9.30
2022-12-23T23:48:41.416Z,9.07
2022-12-23T23:51:08.219Z,9.47
2022-12-23T23:53:35.295Z,8.87
2022-12-23T23:56:04.788Z,10.00
2022-12-23T23:58:31.825Z,10.47
